Time;durP1;ratioP1;P1;durP2;ratioP2;P2;SDS_P1;SDS_P2;PMS_P1;PMS_P2;Temp;Humidity;BMP_temperature;BMP_pressure;BME280_temperature;BME280_humidity;BME280_pressure;Samples;Min_cycle;Max_cycle;Signal;HPM_P1;HPM_P2
2024/01/26 00:01:15;;;;;;;13.95;6.45;;;11.90;90.60;;;;;;5036767;28;20612;-71
2024/01/26 00:03:40;;;;;;;10.15;5.78;;;11.90;90.60;;;;;;5034837;28;20039;-71
2024/01/26 00:06:06;;;;;;;12.75;5.20;;;11.90;90.50;;;;;;5030027;28;20026;-71
2024/01/26 00:08:33;;;;;;;7.47;5.22;;;11.90;90.50;;;;;;5032050;28;20519;-71
2024/01/26 00:10:58;;;;;;;11.80;6.65;;;12.00;90.50;;;;;;5031533;28;20026;-71
2024/01/26 00:13:24;;;;;;;9.52;5.20;;;11.90;90.40;;;;;;5035067;28;20029;-71
2024/01/26 00:15:50;;;;;;;10.75;6.22;;;11.90;90.40;;;;;;5032704;28;20102;-71
2024/01/26 00:18:16;;;;;;;17.55;6.13;;;11.90;90.50;;;;;;5067006;28;20056;-71
2024/01/26 00:20:41;;;;;;;9.85;5.38;;;11.90;90.50;;;;;;5028669;28;20735;-71
2024/01/26 00:23:07;;;;;;;13.48;5.60;;;11.90;90.50;;;;;;5038096;28;20131;-71
2024/01/26 00:25:33;;;;;;;9.80;5.65;;;11.90;90.80;;;;;;5033809;28;20029;-71
2024/01/26 00:27:58;;;;;;;15.50;6.43;;;11.90;90.50;;;;;;5036100;28;20100;-67
2024/01/26 00:30:24;;;;;;;8.27;4.90;;;12.00;90.60;;;;;;5030634;28;20034;-67
2024/01/26 00:32:50;;;;;;;9.38;5.15;;;12.00;90.50;;;;;;5031919;28;20026;-67
2024/01/26 00:35:16;;;;;;;9.75;5.60;;;12.00;90.50;;;;;;5031609;28;20033;-67
2024/01/26 00:37:41;;;;;;;10.40;5.78;;;12.00;90.40;;;;;;5037976;28;20064;-67
2024/01/26 00:40:08;;;;;;;16.95;6.85;;;12.00;90.40;;;;;;5032718;28;20014;-67
2024/01/26 00:42:34;;;;;;;10.93;5.43;;;12.00;90.40;;;;;;5031388;28;20049;-67
2024/01/26 00:44:59;;;;;;;10.77;4.97;;;12.00;90.40;;;;;;5035876;28;20065;-67
2024/01/26 00:47:25;;;;;;;9.68;4.82;;;12.00;90.40;;;;;;5031401;28;20033;-67
2024/01/26 00:49:51;;;;;;;9.57;5.00;;;12.00;90.50;;;;;;5031411;28;20056;-67
2024/01/26 00:52:17;;;;;;;11.60;5.28;;;12.00;90.50;;;;;;5031468;28;20026;-67
2024/01/26 00:54:43;;;;;;;7.70;3.92;;;11.90;90.50;;;;;;5031283;28;20472;-68
2024/01/26 00:57:08;;;;;;;10.25;5.38;;;11.90;90.50;;;;;;5030160;28;20041;-67
2024/01/26 00:59:34;;;;;;;7.75;5.07;;;11.90;90.50;;;;;;5030243;28;20025;-70
2024/01/26 01:02:00;;;;;;;9.65;4.97;;;11.90;90.50;;;;;;5029414;28;20128;-71
2024/01/26 01:04:26;;;;;;;10.68;4.88;;;12.00;90.50;;;;;;5032291;28;20484;-67
2024/01/26 01:06:54;;;;;;;10.00;5.90;;;12.00;90.50;;;;;;5031465;28;20553;-67
2024/01/26 01:09:20;;;;;;;12.75;6.00;;;12.00;90.50;;;;;;5033078;28;20087;-67
2024/01/26 01:11:46;;;;;;;12.00;6.25;;;12.00;90.60;;;;;;5034984;28;20433;-67
2024/01/26 01:14:12;;;;;;;12.88;5.95;;;11.90;90.70;;;;;;5033899;28;20059;-67
2024/01/26 01:16:39;;;;;;;11.88;6.07;;;11.90;90.70;;;;;;5033299;28;20041;-67
2024/01/26 01:19:07;;;;;;;11.27;7.07;;;11.90;90.70;;;;;;5034590;28;20025;-67
2024/01/26 01:21:34;;;;;;;12.48;5.38;;;12.00;90.70;;;;;;5033465;28;20473;-67
2024/01/26 01:24:00;;;;;;;12.48;6.43;;;12.00;90.70;;;;;;5035310;28;20050;-67
2024/01/26 01:26:27;;;;;;;8.38;5.55;;;12.00;90.80;;;;;;5039525;28;20036;-67
2024/01/26 01:28:52;;;;;;;11.32;5.25;;;12.00;90.80;;;;;;5033735;28;20021;-67
2024/01/26 01:31:18;;;;;;;10.00;5.95;;;12.00;90.70;;;;;;5034756;28;20021;-67
2024/01/26 01:33:44;;;;;;;9.77;5.88;;;12.00;90.70;;;;;;5034687;28;20036;-67
2024/01/26 01:36:09;;;;;;;9.07;5.07;;;12.00;90.70;;;;;;5032926;28;20044;-67
2024/01/26 01:38:35;;;;;;;10.77;5.97;;;12.00;90.70;;;;;;5033913;28;20095;-70
2024/01/26 01:41:02;;;;;;;14.00;6.05;;;12.00;90.70;;;;;;5032972;28;20029;-71
2024/01/26 01:43:28;;;;;;;9.55;5.13;;;12.00;90.70;;;;;;5026376;28;20130;-70
2024/01/26 01:45:54;;;;;;;9.43;4.40;;;12.00;90.70;;;;;;5033035;28;20065;-70
2024/01/26 01:48:20;;;;;;;8.55;4.22;;;12.10;90.70;;;;;;5030534;28;20037;-71
2024/01/26 01:50:47;;;;;;;10.02;4.07;;;12.00;90.60;;;;;;5041211;28;20029;-70
2024/01/26 01:53:14;;;;;;;6.15;4.38;;;12.00;90.60;;;;;;5030755;28;20032;-70
2024/01/26 01:55:42;;;;;;;10.23;6.13;;;12.00;90.60;;;;;;5067748;28;20029;-70
2024/01/26 01:58:08;;;;;;;8.75;5.40;;;12.00;90.60;;;;;;5030925;28;20040;-69
2024/01/26 02:00:34;;;;;;;9.90;5.32;;;12.00;91.00;;;;;;5033663;28;20041;-69
2024/01/26 02:03:00;;;;;;;6.95;3.83;;;12.10;90.70;;;;;;5030299;28;20037;-70
2024/01/26 02:05:25;;;;;;;6.82;3.40;;;12.00;90.70;;;;;;5033619;28;20392;-70
2024/01/26 02:07:51;;;;;;;8.55;4.95;;;12.10;90.60;;;;;;5033608;28;20502;-69
2024/01/26 02:10:18;;;;;;;11.60;6.43;;;12.10;90.60;;;;;;5037247;28;20017;-69
2024/01/26 02:12:44;;;;;;;9.43;4.72;;;12.00;90.70;;;;;;5029851;28;20080;-70
2024/01/26 02:15:10;;;;;;;7.63;3.95;;;12.00;90.70;;;;;;5037488;28;20404;-69
2024/01/26 02:17:36;;;;;;;9.70;4.43;;;12.00;90.70;;;;;;5032463;28;20030;-69
2024/01/26 02:20:04;;;;;;;8.27;5.38;;;12.10;90.70;;;;;;5033405;28;20080;-70
2024/01/26 02:22:30;;;;;;;7.93;4.32;;;12.10;90.70;;;;;;5023283;28;20477;-66
2024/01/26 02:24:55;;;;;;;8.65;4.43;;;12.10;90.70;;;;;;5039998;28;20389;-66
2024/01/26 02:27:22;;;;;;;7.50;4.57;;;12.10;90.70;;;;;;5065648;28;20025;-66
2024/01/26 02:29:48;;;;;;;7.07;4.20;;;12.10;90.60;;;;;;5038544;28;20487;-69
2024/01/26 02:32:13;;;;;;;7.35;4.38;;;12.10;90.60;;;;;;5031249;28;20025;-70
2024/01/26 02:34:39;;;;;;;6.63;4.47;;;12.10;90.50;;;;;;5036014;28;20029;-69
2024/01/26 02:37:05;;;;;;;7.18;4.18;;;12.10;90.60;;;;;;5028585;28;20065;-70
2024/01/26 02:39:33;;;;;;;6.70;3.63;;;12.20;90.50;;;;;;5037218;28;20075;-70
2024/01/26 02:41:59;;;;;;;4.68;3.10;;;12.20;90.50;;;;;;5033644;28;20060;-69
2024/01/26 02:44:25;;;;;;;6.82;3.42;;;12.10;90.50;;;;;;5031125;28;20045;-69
2024/01/26 02:46:51;;;;;;;5.47;3.30;;;12.20;90.50;;;;;;5031449;28;20021;-69
2024/01/26 02:49:16;;;;;;;5.65;3.65;;;12.20;90.40;;;;;;5035871;28;20407;-69
2024/01/26 02:51:42;;;;;;;5.00;2.63;;;12.20;90.40;;;;;;5034215;28;20063;-69
2024/01/26 02:54:08;;;;;;;5.05;2.63;;;12.20;90.40;;;;;;5042025;28;20039;-69
2024/01/26 02:56:34;;;;;;;4.70;3.42;;;12.20;90.40;;;;;;5034082;28;20087;-69
2024/01/26 02:59:00;;;;;;;5.68;3.58;;;12.20;90.40;;;;;;5036278;28;20488;-69
2024/01/26 03:01:25;;;;;;;6.57;3.13;;;12.10;90.40;;;;;;5036658;28;20029;-69
2024/01/26 03:03:51;;;;;;;7.93;4.53;;;12.10;90.50;;;;;;5029098;28;20033;-69
2024/01/26 03:06:18;;;;;;;6.32;3.95;;;12.10;90.50;;;;;;5038385;28;20423;-69
2024/01/26 03:08:43;;;;;;;8.10;4.00;;;12.10;90.40;;;;;;5043568;28;20025;-69
2024/01/26 03:11:12;;;;;;;15.07;3.92;;;12.10;90.50;;;;;;5030970;28;20040;-69
2024/01/26 03:13:37;;;;;;;5.13;2.72;;;12.10;90.60;;;;;;5029693;28;20041;-69
2024/01/26 03:16:03;;;;;;;5.50;3.35;;;12.10;90.60;;;;;;5036827;28;20072;-70
2024/01/26 03:18:29;;;;;;;5.00;2.40;;;12.10;90.60;;;;;;5027633;28;20515;-69
2024/01/26 03:20:55;;;;;;;4.95;3.42;;;12.10;90.50;;;;;;5028766;28;20049;-70
2024/01/26 03:23:21;;;;;;;5.25;3.17;;;12.10;90.50;;;;;;5028404;28;20140;-69
2024/01/26 03:25:47;;;;;;;4.22;2.45;;;12.10;90.50;;;;;;5024004;28;20044;-69
2024/01/26 03:28:12;;;;;;;4.50;2.60;;;12.10;90.70;;;;;;5060619;28;20034;-69
2024/01/26 03:30:38;;;;;;;2.35;1.83;;;12.10;90.50;;;;;;5066657;28;20037;-69
2024/01/26 03:33:04;;;;;;;2.65;2.17;;;12.10;90.50;;;;;;5037164;28;20029;-70
2024/01/26 03:35:30;;;;;;;3.40;2.40;;;12.10;90.50;;;;;;5034627;28;20025;-70
2024/01/26 03:37:56;;;;;;;3.15;1.92;;;12.10;90.50;;;;;;5037838;28;20022;-70
2024/01/26 03:40:24;;;;;;;3.15;2.28;;;12.10;90.50;;;;;;5027639;28;20025;-70
2024/01/26 03:42:50;;;;;;;2.70;1.63;;;12.10;90.60;;;;;;5031016;28;20111;-70
2024/01/26 03:45:16;;;;;;;4.43;2.15;;;12.10;90.60;;;;;;5028805;28;20030;-70
2024/01/26 03:47:42;;;;;;;3.92;2.38;;;12.10;90.50;;;;;;5023485;28;20546;-69
2024/01/26 03:50:08;;;;;;;4.10;2.38;;;12.10;90.60;;;;;;5030408;28;20476;-70
2024/01/26 03:52:34;;;;;;;4.10;1.60;;;12.10;90.50;;;;;;5030378;28;20045;-70
2024/01/26 03:55:01;;;;;;;3.75;2.20;;;12.20;90.60;;;;;;5028990;28;20044;-70
2024/01/26 03:57:26;;;;;;;4.68;1.73;;;12.20;90.50;;;;;;5030851;28;20030;-69
2024/01/26 03:59:52;;;;;;;4.07;2.55;;;12.20;90.50;;;;;;5035659;28;20083;-70
2024/01/26 04:02:18;;;;;;;3.17;1.88;;;12.20;90.50;;;;;;5031042;28;20465;-69
2024/01/26 04:04:45;;;;;;;2.88;1.75;;;12.20;90.50;;;;;;5029741;28;20033;-70
2024/01/26 04:07:11;;;;;;;3.22;2.15;;;12.20;90.50;;;;;;5033247;28;20032;-66
2024/01/26 04:09:37;;;;;;;3.80;2.17;;;12.20;90.50;;;;;;5031471;28;20037;-66
2024/01/26 04:12:04;;;;;;;2.63;1.50;;;12.20;90.60;;;;;;5044093;28;20391;-67
2024/01/26 04:14:29;;;;;;;3.28;1.58;;;12.20;90.60;;;;;;5030496;28;20084;-67
2024/01/26 04:16:55;;;;;;;3.05;2.00;;;12.20;90.60;;;;;;5035507;28;20477;-67
2024/01/26 04:19:21;;;;;;;3.67;1.55;;;12.30;90.50;;;;;;5031756;28;20025;-66
2024/01/26 04:21:49;;;;;;;2.97;1.85;;;12.30;90.50;;;;;;5030451;28;20021;-66
2024/01/26 04:24:15;;;;;;;2.33;1.60;;;12.30;90.50;;;;;;5030872;28;20045;-67
2024/01/26 04:26:41;;;;;;;4.18;1.67;;;12.30;90.50;;;;;;5035915;28;20053;-67
2024/01/26 04:29:07;;;;;;;3.97;2.42;;;12.30;90.50;;;;;;5033429;28;20017;-67
2024/01/26 04:31:33;;;;;;;2.80;1.48;;;12.30;90.50;;;;;;5032916;28;20041;-67
2024/01/26 04:33:59;;;;;;;1.92;1.55;;;12.30;90.50;;;;;;5032188;28;20164;-67
2024/01/26 04:36:25;;;;;;;3.08;1.75;;;12.30;90.50;;;;;;5031196;28;20033;-67
2024/01/26 04:38:51;;;;;;;2.40;1.55;;;12.40;90.40;;;;;;5031744;28;20038;-67
2024/01/26 04:41:16;;;;;;;2.25;1.58;;;12.40;90.40;;;;;;5030223;28;20029;-67
2024/01/26 04:43:43;;;;;;;2.33;1.70;;;12.40;90.40;;;;;;5031068;28;20481;-67
2024/01/26 04:46:08;;;;;;;2.47;1.83;;;12.40;90.50;;;;;;5034487;28;20033;-70
2024/01/26 04:48:34;;;;;;;2.28;1.58;;;12.40;90.40;;;;;;5034755;28;20029;-70
2024/01/26 04:51:00;;;;;;;2.92;2.17;;;12.30;90.50;;;;;;5032421;28;20126;-70
2024/01/26 04:53:26;;;;;;;3.10;1.70;;;12.30;90.50;;;;;;5038166;28;20041;-70
2024/01/26 04:55:53;;;;;;;5.07;1.65;;;12.30;90.50;;;;;;5045599;28;20033;-67
2024/01/26 04:58:19;;;;;;;3.65;1.63;;;12.40;90.50;;;;;;5035226;28;20419;-66
2024/01/26 05:00:46;;;;;;;2.15;1.60;;;12.40;90.50;;;;;;5040142;28;20029;-70
2024/01/26 05:03:12;;;;;;;2.50;1.58;;;12.40;90.50;;;;;;5040859;28;20087;-66
2024/01/26 05:05:38;;;;;;;2.05;1.50;;;12.40;90.40;;;;;;5036828;28;20028;-67
2024/01/26 05:08:04;;;;;;;2.38;2.15;;;12.40;90.40;;;;;;5038273;28;20009;-66
2024/01/26 05:10:29;;;;;;;3.53;1.63;;;12.40;90.40;;;;;;5038706;28;20064;-66
2024/01/26 05:12:55;;;;;;;3.63;1.40;;;12.40;90.70;;;;;;5033701;28;20045;-66
2024/01/26 05:15:21;;;;;;;2.97;2.00;;;12.40;90.50;;;;;;5040891;28;20112;-70
2024/01/26 05:17:47;;;;;;;2.55;1.65;;;12.40;90.50;;;;;;5044163;28;20091;-69
2024/01/26 05:20:13;;;;;;;2.72;1.52;;;12.40;90.50;;;;;;5031024;28;20064;-69
2024/01/26 05:22:39;;;;;;;2.05;1.23;;;12.40;90.40;;;;;;5031646;28;20056;-70
2024/01/26 05:25:05;;;;;;;3.05;2.30;;;12.50;90.40;;;;;;5030383;28;20783;-70
2024/01/26 05:27:31;;;;;;;4.85;2.67;;;12.50;90.40;;;;;;5031409;28;20025;-66
2024/01/26 05:29:57;;;;;;;2.38;1.80;;;12.50;90.40;;;;;;5032128;28;20329;-70
2024/01/26 05:32:22;;;;;;;4.20;2.08;;;12.40;90.50;;;;;;5036774;28;20071;-70
2024/01/26 05:34:48;;;;;;;1.85;1.52;;;12.40;90.50;;;;;;5029948;28;20038;-70
2024/01/26 05:37:14;;;;;;;6.28;2.65;;;12.40;90.50;;;;;;5035003;28;20021;-67
2024/01/26 05:39:41;;;;;;;2.50;2.15;;;12.40;90.60;;;;;;5034215;28;20476;-66
2024/01/26 05:42:07;;;;;;;3.95;2.25;;;12.40;90.60;;;;;;5041003;28;20075;-67
2024/01/26 05:44:32;;;;;;;3.20;1.95;;;12.40;90.60;;;;;;5038157;28;20492;-66
2024/01/26 05:46:58;;;;;;;2.95;1.67;;;12.40;90.50;;;;;;5032956;28;20812;-66
2024/01/26 05:49:25;;;;;;;7.15;2.22;;;12.50;90.50;;;;;;5037682;28;20026;-67
2024/01/26 05:51:52;;;;;;;6.15;1.83;;;12.50;90.50;;;;;;5037790;28;20025;-66
2024/01/26 05:54:17;;;;;;;2.65;1.40;;;12.50;90.50;;;;;;5031889;28;20106;-67
2024/01/26 05:56:43;;;;;;;2.83;2.17;;;12.50;90.50;;;;;;5040839;28;20060;-66
2024/01/26 05:59:09;;;;;;;2.25;1.67;;;12.50;90.50;;;;;;5038520;28;20725;-67
2024/01/26 06:01:35;;;;;;;8.40;2.47;;;12.60;90.50;;;;;;5032629;28;20128;-67
2024/01/26 06:04:01;;;;;;;4.55;2.40;;;12.60;90.40;;;;;;5033355;28;20503;-66
2024/01/26 06:06:27;;;;;;;3.70;1.98;;;12.60;90.40;;;;;;5032082;28;20560;-67
2024/01/26 06:08:53;;;;;;;3.45;1.77;;;12.60;90.40;;;;;;5032897;28;20106;-67
2024/01/26 06:11:20;;;;;;;2.80;1.95;;;12.60;90.50;;;;;;5033240;28;20030;-67
2024/01/26 06:13:46;;;;;;;3.35;2.13;;;12.50;90.40;;;;;;5034730;28;20021;-67
2024/01/26 06:16:14;;;;;;;3.35;1.95;;;12.50;90.50;;;;;;5034739;28;20017;-67
2024/01/26 06:18:43;;;;;;;3.65;2.20;;;12.50;90.50;;;;;;5033311;28;20060;-67
2024/01/26 06:21:10;;;;;;;4.35;2.90;;;12.50;90.60;;;;;;5026561;28;20029;-66
2024/01/26 06:23:36;;;;;;;7.25;2.60;;;12.50;90.60;;;;;;5034005;28;20327;-66
2024/01/26 06:26:01;;;;;;;4.95;2.47;;;12.50;90.60;;;;;;5037919;28;20485;-66
2024/01/26 06:28:27;;;;;;;5.18;2.50;;;12.60;90.60;;;;;;5029707;28;20025;-66
2024/01/26 06:30:53;;;;;;;4.22;2.80;;;12.50;90.60;;;;;;5035384;28;20499;-66
2024/01/26 06:33:18;;;;;;;3.58;2.55;;;12.50;90.70;;;;;;5039042;28;20388;-66
2024/01/26 06:35:44;;;;;;;4.65;2.30;;;12.40;90.80;;;;;;5039769;28;20025;-67
2024/01/26 06:38:10;;;;;;;4.35;2.85;;;12.40;90.80;;;;;;5038404;28;20021;-69
2024/01/26 06:40:35;;;;;;;4.55;2.42;;;12.40;90.80;;;;;;5033762;28;20034;-69
2024/01/26 06:43:06;;;;;;;4.22;2.35;;;12.40;90.80;;;;;;5035468;28;20024;-66
2024/01/26 06:45:32;;;;;;;3.58;2.28;;;12.30;90.90;;;;;;5035220;28;20029;-66
2024/01/26 06:47:58;;;;;;;7.35;3.30;;;12.40;90.90;;;;;;5031981;28;20037;-67
2024/01/26 06:50:24;;;;;;;6.38;2.28;;;12.40;90.90;;;;;;5032135;28;20033;-70
2024/01/26 06:52:49;;;;;;;3.63;1.98;;;12.40;91.00;;;;;;5032846;28;20044;-69
2024/01/26 06:55:15;;;;;;;3.72;1.98;;;12.30;90.90;;;;;;5070881;28;20128;-66
2024/01/26 06:57:41;;;;;;;3.65;1.67;;;12.30;91.00;;;;;;5036534;28;20585;-66
2024/01/26 07:00:09;;;;;;;3.42;1.88;;;12.30;90.90;;;;;;5041205;28;20481;-66
2024/01/26 07:02:34;;;;;;;3.33;1.70;;;12.30;90.90;;;;;;5037192;28;20029;-66
2024/01/26 07:05:00;;;;;;;3.35;2.10;;;12.30;90.90;;;;;;5034872;28;20064;-67
2024/01/26 07:07:25;;;;;;;3.78;2.15;;;12.30;90.90;;;;;;5039416;28;20334;-67
2024/01/26 07:09:51;;;;;;;3.40;2.00;;;12.30;90.90;;;;;;5038755;28;20022;-67
2024/01/26 07:12:17;;;;;;;4.18;1.90;;;12.40;91.00;;;;;;5029794;28;20038;-66
2024/01/26 07:14:42;;;;;;;3.28;1.92;;;12.30;91.00;;;;;;5035773;28;20025;-67
2024/01/26 07:17:08;;;;;;;3.67;1.98;;;12.30;91.10;;;;;;5037001;28;20030;-67
2024/01/26 07:19:34;;;;;;;3.03;1.80;;;12.40;91.10;;;;;;5030523;28;20588;-66
2024/01/26 07:21:59;;;;;;;1.98;1.40;;;12.30;91.10;;;;;;5032087;28;20511;-67
2024/01/26 07:24:25;;;;;;;2.30;1.27;;;12.30;91.20;;;;;;5031813;28;20049;-67
2024/01/26 07:26:53;;;;;;;1.83;1.33;;;12.30;91.30;;;;;;5033176;28;20025;-67
2024/01/26 07:29:18;;;;;;;3.78;2.63;;;12.30;91.30;;;;;;5042718;28;20112;-66
2024/01/26 07:31:46;;;;;;;3.70;2.00;;;12.30;91.30;;;;;;5033298;28;20124;-67
2024/01/26 07:34:12;;;;;;;3.25;1.60;;;12.40;91.30;;;;;;5032162;28;20056;-66
2024/01/26 07:36:37;;;;;;;2.17;1.70;;;12.40;91.30;;;;;;5030411;28;20017;-67
2024/01/26 07:39:05;;;;;;;2.55;1.70;;;12.40;91.40;;;;;;5030829;28;20066;-67
2024/01/26 07:41:31;;;;;;;2.28;1.33;;;12.40;91.40;;;;;;5041601;28;20029;-68
2024/01/26 07:43:57;;;;;;;3.53;1.83;;;12.40;91.40;;;;;;5030769;28;20040;-70
2024/01/26 07:46:23;;;;;;;1.65;1.55;;;12.40;91.50;;;;;;5029419;28;20063;-70
2024/01/26 07:48:48;;;;;;;2.50;1.73;;;12.40;91.50;;;;;;5046643;28;20025;-69
2024/01/26 07:51:14;;;;;;;2.15;1.10;;;12.50;91.50;;;;;;5028984;28;20026;-70
2024/01/26 07:53:40;;;;;;;2.65;1.58;;;12.40;91.50;;;;;;5017247;28;20033;-71
2024/01/26 07:56:06;;;;;;;1.67;1.25;;;12.40;91.50;;;;;;5021393;28;20124;-70
2024/01/26 07:58:32;;;;;;;3.10;2.00;;;12.40;91.60;;;;;;5015307;28;20481;-70
2024/01/26 08:00:58;;;;;;;3.70;2.20;;;12.40;91.60;;;;;;5022714;28;20451;-71
2024/01/26 08:03:23;;;;;;;5.55;2.60;;;12.40;91.60;;;;;;5034074;28;20041;-67
2024/01/26 08:05:49;;;;;;;3.42;2.25;;;12.40;91.70;;;;;;5032239;28;20035;-70
2024/01/26 08:08:15;;;;;;;3.72;2.10;;;12.40;91.70;;;;;;5020919;28;20473;-70
2024/01/26 08:10:41;;;;;;;2.70;2.10;;;12.50;91.80;;;;;;5024754;28;20087;-69
2024/01/26 08:13:06;;;;;;;3.35;1.85;;;12.40;91.80;;;;;;5021128;28;20041;-70
2024/01/26 08:15:32;;;;;;;4.75;2.55;;;12.40;91.90;;;;;;5027344;28;20037;-69
2024/01/26 08:17:58;;;;;;;3.13;2.00;;;12.50;92.00;;;;;;5030823;28;20128;-70
2024/01/26 08:20:23;;;;;;;2.80;2.00;;;12.50;92.00;;;;;;5038871;28;20102;-67
2024/01/26 08:22:49;;;;;;;3.45;2.08;;;12.40;92.10;;;;;;5035408;28;20057;-68
2024/01/26 08:25:15;;;;;;;3.85;2.42;;;12.50;92.10;;;;;;5032430;28;20052;-67
2024/01/26 08:27:40;;;;;;;5.00;2.22;;;12.50;92.10;;;;;;5034318;28;20412;-68
2024/01/26 08:30:06;;;;;;;5.30;2.20;;;12.50;92.10;;;;;;5038712;28;20060;-71
2024/01/26 08:32:32;;;;;;;3.78;2.10;;;12.50;92.10;;;;;;5036214;28;20025;-70
2024/01/26 08:34:58;;;;;;;3.75;2.35;;;12.60;92.10;;;;;;5023671;28;20096;-70
2024/01/26 08:37:24;;;;;;;4.75;2.78;;;12.60;92.10;;;;;;5029272;28;20107;-70
2024/01/26 08:39:49;;;;;;;4.43;2.78;;;12.60;92.00;;;;;;5041654;28;20064;-67
2024/01/26 08:42:15;;;;;;;4.38;2.67;;;12.60;92.00;;;;;;5035059;28;20029;-67
2024/01/26 08:44:41;;;;;;;4.35;2.65;;;12.70;92.00;;;;;;5037040;28;20025;-71
2024/01/26 08:47:06;;;;;;;5.25;2.45;;;12.70;92.00;;;;;;5030357;28;20032;-70
2024/01/26 08:49:32;;;;;;;7.25;3.75;;;12.80;92.00;;;;;;5019336;28;20030;-70
2024/01/26 08:51:58;;;;;;;3.40;2.10;;;12.80;91.90;;;;;;5029037;28;20386;-70
2024/01/26 08:54:26;;;;;;;11.45;3.15;;;12.80;91.90;;;;;;5028458;28;20057;-68
2024/01/26 08:56:52;;;;;;;4.70;3.10;;;12.80;91.80;;;;;;5039988;28;20075;-68
2024/01/26 08:59:18;;;;;;;3.63;2.70;;;12.90;91.80;;;;;;5036779;28;20029;-69
2024/01/26 09:01:43;;;;;;;5.47;2.95;;;12.90;91.80;;;;;;5038432;28;20069;-69
2024/01/26 09:04:09;;;;;;;4.07;2.80;;;12.90;91.80;;;;;;5025884;28;20124;-70
2024/01/26 09:06:35;;;;;;;6.43;3.25;;;12.90;91.70;;;;;;5026526;28;20056;-70
2024/01/26 09:09:02;;;;;;;5.32;2.45;;;12.90;91.70;;;;;;5025362;28;20374;-65
2024/01/26 09:11:28;;;;;;;4.22;3.13;;;12.90;91.80;;;;;;5026819;28;21159;-69
2024/01/26 09:13:54;;;;;;;3.65;2.20;;;12.90;91.80;;;;;;5027663;28;20072;-67
2024/01/26 09:16:20;;;;;;;6.72;2.97;;;12.80;91.80;;;;;;5028805;28;20064;-69
2024/01/26 09:18:46;;;;;;;3.13;1.70;;;12.80;91.80;;;;;;5027277;28;20033;-66
2024/01/26 09:21:12;;;;;;;5.32;2.70;;;12.80;91.80;;;;;;5026956;28;20515;-65
2024/01/26 09:23:38;;;;;;;6.63;2.63;;;12.80;91.80;;;;;;5026610;28;20040;-66
2024/01/26 09:26:04;;;;;;;2.15;1.60;;;12.80;91.90;;;;;;5027753;28;20039;-64
2024/01/26 09:28:29;;;;;;;3.28;2.15;;;12.80;92.00;;;;;;5025502;28;20026;-66
2024/01/26 09:30:55;;;;;;;2.75;2.00;;;12.80;91.80;;;;;;5025696;28;20021;-67
2024/01/26 09:33:22;;;;;;;3.13;1.55;;;12.80;91.80;;;;;;5022646;28;20017;-67
2024/01/26 09:35:48;;;;;;;5.95;1.20;;;12.70;91.80;;;;;;5026835;28;20025;-70
2024/01/26 09:38:14;;;;;;;1.50;1.05;;;12.70;91.60;;;;;;5019460;28;20407;-68
2024/01/26 09:40:41;;;;;;;4.28;0.80;;;12.70;91.20;;;;;;5021262;28;20839;-69
2024/01/26 09:43:07;;;;;;;1.50;0.75;;;12.60;90.90;;;;;;5024447;28;20030;-68
2024/01/26 09:45:33;;;;;;;1.13;0.60;;;12.60;90.60;;;;;;5019378;28;20037;-69
2024/01/26 09:47:59;;;;;;;8.10;1.25;;;12.60;90.20;;;;;;5024245;28;20387;-69
2024/01/26 09:50:26;;;;;;;2.58;0.60;;;12.60;90.00;;;;;;5031381;28;20055;-69
2024/01/26 09:52:52;;;;;;;1.40;0.47;;;12.60;89.60;;;;;;5054240;28;20039;-69
2024/01/26 09:55:19;;;;;;;2.33;1.00;;;12.50;88.90;;;;;;5011244;28;20094;-69
2024/01/26 09:57:47;;;;;;;1.08;0.47;;;12.50;88.70;;;;;;5034541;28;20052;-68
2024/01/26 10:00:14;;;;;;;1.77;0.68;;;12.30;88.30;;;;;;5030432;28;20033;-68
2024/01/26 10:02:42;;;;;;;0.93;0.60;;;12.10;87.70;;;;;;5027348;28;20087;-68
2024/01/26 10:05:08;;;;;;;0.45;0.30;;;11.90;86.90;;;;;;5031077;28;20034;-68
2024/01/26 10:07:34;;;;;;;4.45;0.93;;;11.80;86.70;;;;;;5029115;28;20420;-68
2024/01/26 10:09:59;;;;;;;0.40;0.30;;;11.60;86.30;;;;;;5020841;28;20052;-68
2024/01/26 10:12:25;;;;;;;1.55;0.30;;;11.50;86.30;;;;;;5036434;28;20029;-68
2024/01/26 10:15:05;;;;;;;0.77;0.50;;;11.50;86.10;;;;;;5033752;28;20044;-68
2024/01/26 10:17:30;;;;;;;1.77;0.40;;;11.40;85.80;;;;;;5030527;28;20111;-68
2024/01/26 10:20:18;;;;;;;0.88;0.20;;;11.30;85.60;;;;;;5031240;28;20068;-68
2024/01/26 10:22:45;;;;;;;1.25;0.43;;;11.30;85.50;;;;;;5031637;28;20032;-68
2024/01/26 10:25:11;;;;;;;0.32;0.30;;;11.30;85.20;;;;;;5023428;28;20372;-69
2024/01/26 10:27:37;;;;;;;0.85;0.60;;;11.20;84.70;;;;;;5016931;28;20476;-68
2024/01/26 10:30:04;;;;;;;0.20;0.20;;;11.20;84.60;;;;;;5028658;28;20045;-68
2024/01/26 10:32:32;;;;;;;5.80;0.88;;;11.20;84.40;;;;;;5030719;28;20068;-69
2024/01/26 10:34:59;;;;;;;7.82;1.45;;;11.20;83.30;;;;;;5031958;28;20120;-69
2024/01/26 10:37:29;;;;;;;2.75;0.60;;;11.20;83.60;;;;;;5032954;28;20045;-68
2024/01/26 10:39:56;;;;;;;4.60;0.75;;;11.20;83.10;;;;;;5034853;28;20124;-69
2024/01/26 10:42:23;;;;;;;1.85;0.30;;;11.30;82.90;;;;;;5033858;28;20025;-68
2024/01/26 10:44:49;;;;;;;4.28;0.50;;;11.40;82.70;;;;;;5028883;28;20033;-69
2024/01/26 10:47:17;;;;;;;1.55;0.38;;;11.60;82.50;;;;;;5028665;28;20018;-69
2024/01/26 10:49:48;;;;;;;3.58;0.50;;;11.70;81.00;;;;;;5029121;28;20049;-68
2024/01/26 10:52:19;;;;;;;4.00;1.70;;;11.80;81.20;;;;;;5021610;28;20083;-69
2024/01/26 10:54:49;;;;;;;3.40;1.10;;;12.00;80.80;;;;;;5032822;28;20025;-68
2024/01/26 10:57:16;;;;;;;4.53;0.68;;;12.20;81.00;;;;;;5022809;28;20582;-69
2024/01/26 10:59:45;;;;;;;3.40;0.63;;;12.60;79.90;;;;;;5021679;28;20445;-69
2024/01/26 11:02:15;;;;;;;0.77;0.60;;;13.00;76.70;;;;;;5025485;28;20532;-69
2024/01/26 11:04:42;;;;;;;5.65;0.47;;;13.20;75.30;;;;;;5014972;28;20032;-69
2024/01/26 11:07:08;;;;;;;2.92;0.75;;;13.60;74.10;;;;;;5018741;28;20048;-69
2024/01/26 11:09:38;;;;;;;5.28;1.00;;;14.40;71.50;;;;;;5022190;28;20083;-69
2024/01/26 11:12:08;;;;;;;7.13;0.70;;;15.60;68.80;;;;;;5036630;28;20065;-68
2024/01/26 11:14:34;;;;;;;2.75;1.20;;;16.70;63.90;;;;;;5029905;28;20037;-68
2024/01/26 11:17:10;;;;;;;2.17;0.90;;;16.70;61.50;;;;;;5027956;28;20040;-68
2024/01/26 11:19:37;;;;;;;2.90;0.50;;;16.50;62.40;;;;;;5046425;28;20087;-68
2024/01/26 11:22:07;;;;;;;2.25;0.70;;;16.60;61.10;;;;;;5034077;28;20044;-68
2024/01/26 11:24:34;;;;;;;5.07;0.75;;;16.40;59.70;;;;;;5030577;28;20049;-68
2024/01/26 11:27:02;;;;;;;1.65;0.70;;;15.80;61.40;;;;;;5023244;28;20136;-69
2024/01/26 11:29:34;;;;;;;2.08;0.85;;;15.20;62.80;;;;;;5030932;28;20057;-70
2024/01/26 11:32:01;;;;;;;10.73;1.05;;;15.20;62.80;;;;;;5028545;28;20707;-70
2024/01/26 11:34:27;;;;;;;3.47;1.13;;;15.10;62.50;;;;;;5033858;28;20037;-68
2024/01/26 11:37:19;;;;;;;3.95;0.65;;;14.80;61.20;;;;;;5032532;28;20110;-68
2024/01/26 11:39:45;;;;;;;1.02;0.70;;;14.20;61.10;;;;;;5034691;28;20073;-68
2024/01/26 11:42:11;;;;;;;2.10;0.77;;;13.70;63.40;;;;;;5035749;28;20421;-68
2024/01/26 11:44:41;;;;;;;4.75;1.73;;;13.40;64.90;;;;;;5036490;28;20041;-68
2024/01/26 11:47:10;;;;;;;4.05;0.88;;;13.30;64.40;;;;;;5035769;28;20029;-68
2024/01/26 11:49:37;;;;;;;3.15;0.93;;;13.00;63.90;;;;;;5036935;28;20094;-68
2024/01/26 11:52:04;;;;;;;2.58;0.60;;;12.70;65.20;;;;;;5035679;28;20029;-68
2024/01/26 11:54:31;;;;;;;1.77;0.80;;;12.50;65.40;;;;;;5030714;28;20037;-68
2024/01/26 11:56:58;;;;;;;3.42;0.88;;;12.50;65.50;;;;;;5036845;28;20438;-68
2024/01/26 11:59:23;;;;;;;4.78;0.90;;;12.70;65.70;;;;;;5029948;28;20038;-68
2024/01/26 12:01:49;;;;;;;4.60;1.17;;;12.70;65.70;;;;;;5033726;28;20040;-68
2024/01/26 12:04:16;;;;;;;4.20;1.10;;;12.50;65.30;;;;;;5029913;28;20392;-68
2024/01/26 12:06:42;;;;;;;1.17;0.73;;;12.30;65.50;;;;;;5030618;28;20112;-68
2024/01/26 12:09:09;;;;;;;7.03;1.00;;;12.20;66.40;;;;;;5028873;28;20532;-68
2024/01/26 12:11:35;;;;;;;3.10;0.68;;;12.20;66.10;;;;;;5029520;28;20404;-68
2024/01/26 12:14:01;;;;;;;6.72;1.58;;;12.20;66.70;;;;;;5029978;28;20021;-68
2024/01/26 12:16:30;;;;;;;3.42;1.15;;;12.30;66.70;;;;;;5032119;28;20071;-68
2024/01/26 12:18:56;;;;;;;4.70;0.57;;;13.10;65.00;;;;;;5028752;28;20113;-68
2024/01/26 12:21:22;;;;;;;4.32;1.05;;;13.40;64.60;;;;;;5031436;28;20120;-68
2024/01/26 12:23:50;;;;;;;1.75;0.55;;;13.50;63.20;;;;;;5025145;28;20052;-68
2024/01/26 12:26:16;;;;;;;2.38;0.80;;;13.30;63.20;;;;;;5028965;28;20030;-69
2024/01/26 12:28:42;;;;;;;4.13;1.60;;;12.90;62.10;;;;;;5033456;28;20032;-68
2024/01/26 12:31:08;;;;;;;5.00;0.73;;;12.60;62.50;;;;;;5034664;28;20108;-68
2024/01/26 12:33:37;;;;;;;1.90;0.90;;;12.30;63.30;;;;;;5024610;28;20037;-68
2024/01/26 12:36:11;;;;;;;0.80;0.57;;;12.10;63.20;;;;;;5033086;28;20121;-68
2024/01/26 12:38:37;;;;;;;4.75;0.65;;;11.90;63.40;;;;;;5028218;28;20026;-68
2024/01/26 12:41:03;;;;;;;4.38;1.00;;;11.70;64.60;;;;;;5011829;28;20037;-68